createdAt,value
2023-02-08T00:01:34.299Z,82.66
2023-02-08T00:04:46.949Z,82.75
2023-02-08T00:07:59.336Z,83.17
2023-02-08T00:11:12.199Z,83.50
2023-02-08T00:14:24.535Z,84.13
2023-02-08T00:17:37.641Z,84.22
2023-02-08T00:20:50.089Z,83.28
2023-02-08T00:24:02.805Z,83.52
2023-02-08T00:27:16.209Z,83.40
2023-02-08T00:30:28.887Z,82.15
2023-02-08T00:33:41.184Z,80.56
2023-02-08T00:36:53.867Z,80.84
2023-02-08T00:40:06.646Z,81.22
2023-02-08T00:43:19.240Z,81.00
2023-02-08T00:46:31.659Z,80.42
2023-02-08T00:49:44.290Z,79.23
2023-02-08T00:52:56.710Z,79.01
2023-02-08T00:56:11.532Z,79.21
2023-02-08T00:59:23.995Z,79.07
2023-02-08T01:02:38.307Z,78.90
2023-02-08T01:05:50.639Z,78.70
2023-02-08T01:09:03.421Z,79.67
2023-02-08T01:12:15.823Z,79.82
2023-02-08T01:15:28.471Z,79.85
2023-02-08T01:18:41.333Z,79.89
2023-02-08T01:21:54.055Z,78.54
2023-02-08T01:25:06.392Z,80.07
2023-02-08T01:28:19.054Z,79.65
2023-02-08T01:31:35.019Z,80.08
2023-02-08T01:34:47.738Z,80.93
2023-02-08T01:38:00.122Z,81.35
2023-02-08T01:41:25.554Z,81.72
2023-02-08T01:45:15.261Z,80.34
2023-02-08T01:48:27.720Z,79.46
2023-02-08T01:51:44.378Z,77.84
2023-02-08T01:55:05.473Z,76.60
2023-02-08T01:58:17.947Z,77.72
2023-02-08T02:01:30.866Z,77.38
2023-02-08T02:04:43.801Z,76.77
2023-02-08T02:07:56.147Z,76.50
2023-02-08T02:11:08.861Z,78.53
2023-02-08T02:14:21.546Z,79.57
2023-02-08T02:17:34.242Z,78.95
2023-02-08T02:20:49.735Z,80.14
2023-02-08T02:24:37.997Z,80.95
2023-02-08T02:28:14.807Z,82.68
2023-02-08T02:31:30.515Z,82.78
2023-02-08T02:35:16.920Z,82.32
2023-02-08T02:38:51.323Z,82.66
2023-02-08T02:42:33.064Z,83.43
2023-02-08T02:45:54.853Z,83.41
2023-02-08T02:49:19.008Z,83.39
2023-02-08T02:52:34.948Z,83.34
2023-02-08T02:55:49.976Z,83.01
2023-02-08T02:59:06.720Z,82.61
2023-02-08T03:02:19.044Z,83.05
2023-02-08T03:05:31.679Z,82.63
2023-02-08T03:08:55.469Z,82.07
2023-02-08T03:12:26.720Z,82.69
2023-02-08T03:15:47.973Z,82.93
2023-02-08T03:19:06.619Z,81.97
2023-02-08T03:22:58.529Z,82.00
2023-02-08T03:26:17.675Z,82.92
2023-02-08T03:29:51.095Z,82.56
2023-02-08T03:33:05.882Z,83.19
2023-02-08T03:36:41.635Z,83.02
2023-02-08T03:39:58.692Z,83.26
2023-02-08T03:43:20.190Z,82.97
2023-02-08T03:46:34.322Z,82.56
2023-02-08T03:49:46.725Z,82.67
2023-02-08T03:52:59.317Z,82.46
2023-02-08T03:56:17.206Z,83.36
2023-02-08T03:59:32.699Z,82.56
2023-02-08T04:02:53.213Z,83.19
2023-02-08T04:06:06.060Z,82.59
2023-02-08T04:09:18.406Z,81.99
2023-02-08T04:12:31.031Z,81.35
2023-02-08T04:15:44.438Z,81.28
2023-02-08T04:18:57.092Z,81.50
2023-02-08T04:22:09.438Z,81.74
2023-02-08T04:25:22.078Z,81.34
2023-02-08T04:28:34.621Z,81.52
2023-02-08T04:31:47.346Z,81.97
2023-02-08T04:34:59.853Z,81.27
2023-02-08T04:38:12.484Z,81.23
2023-02-08T04:41:25.024Z,81.21
2023-02-08T04:44:37.630Z,81.68
2023-02-08T04:47:49.949Z,81.20
2023-02-08T04:51:02.592Z,81.81
2023-02-08T04:54:14.964Z,81.16
2023-02-08T04:57:27.610Z,81.54
2023-02-08T05:00:40.282Z,81.52
2023-02-08T05:03:53.065Z,81.55
2023-02-08T05:07:05.353Z,81.71
2023-02-08T05:10:18.065Z,81.61
2023-02-08T05:13:30.476Z,81.38
2023-02-08T05:16:43.104Z,81.63
2023-02-08T05:19:55.705Z,82.46
2023-02-08T05:23:08.302Z,82.62
2023-02-08T05:26:20.723Z,83.47
2023-02-08T05:29:33.616Z,83.38
2023-02-08T05:32:46.039Z,83.63
2023-02-08T05:36:00.129Z,83.89
2023-02-08T05:39:12.429Z,83.47
2023-02-08T05:42:25.194Z,84.27
2023-02-08T05:45:37.532Z,84.51
2023-02-08T05:48:50.123Z,84.30
2023-02-08T05:52:02.479Z,84.37
2023-02-08T05:55:15.088Z,85.29
2023-02-08T05:58:28.295Z,84.99
2023-02-08T06:01:41.038Z,84.85
2023-02-08T06:04:53.656Z,84.93
2023-02-08T06:08:06.002Z,84.97
2023-02-08T06:11:19.400Z,84.71
2023-02-08T06:14:31.743Z,84.85
2023-02-08T06:17:44.430Z,84.65
2023-02-08T06:20:56.763Z,84.56
2023-02-08T06:24:10.258Z,84.28
2023-02-08T06:27:22.644Z,84.50
2023-02-08T06:30:35.248Z,84.66
2023-02-08T06:33:47.714Z,84.50
2023-02-08T06:37:02.335Z,83.87
2023-02-08T06:40:14.750Z,83.46
2023-02-08T06:43:27.450Z,82.34
2023-02-08T06:46:39.836Z,80.86
2023-02-08T06:49:52.866Z,80.98
2023-02-08T06:53:05.276Z,81.99
2023-02-08T06:56:18.069Z,81.62
2023-02-08T06:59:30.527Z,81.77
2023-02-08T07:02:43.251Z,81.66
2023-02-08T07:06:04.652Z,81.17
2023-02-08T07:09:18.124Z,81.02
2023-02-08T07:12:33.663Z,80.83
2023-02-08T07:15:46.290Z,80.30
2023-02-08T07:18:58.651Z,79.93
2023-02-08T07:22:11.350Z,80.00
2023-02-08T07:25:24.891Z,79.83
2023-02-08T07:28:39.188Z,79.79
2023-02-08T07:31:51.579Z,79.53
2023-02-08T07:35:04.288Z,79.43
2023-02-08T07:38:16.728Z,78.79
2023-02-08T07:41:30.444Z,79.22
2023-02-08T07:44:42.822Z,79.00
2023-02-08T07:47:55.463Z,78.69
2023-02-08T07:51:08.233Z,78.47
2023-02-08T07:54:22.660Z,78.25
2023-02-08T07:57:42.023Z,77.75
2023-02-08T08:00:55.370Z,77.86
2023-02-08T08:04:08.280Z,77.95
2023-02-08T08:07:20.634Z,77.04
2023-02-08T08:10:33.311Z,77.36
2023-02-08T08:13:45.765Z,77.03
2023-02-08T08:16:58.416Z,76.17
2023-02-08T08:20:11.276Z,76.08
2023-02-08T08:23:24.062Z,75.76
2023-02-08T08:26:36.448Z,75.65
2023-02-08T08:29:49.114Z,75.58
2023-02-08T08:33:01.573Z,75.37
2023-02-08T08:36:14.286Z,75.08
2023-02-08T08:39:27.360Z,75.13
2023-02-08T08:42:40.038Z,75.29
2023-02-08T08:45:53.149Z,74.94
2023-02-08T08:49:06.025Z,75.56
2023-02-08T08:52:19.200Z,75.54
2023-02-08T08:55:31.815Z,75.40
2023-02-08T08:58:44.189Z,75.08
2023-02-08T09:01:56.949Z,74.60
2023-02-08T09:05:09.322Z,74.96
2023-02-08T09:08:22.008Z,73.74
2023-02-08T09:11:34.390Z,74.07
2023-02-08T09:14:47.097Z,73.59
2023-02-08T09:17:59.501Z,74.58
2023-02-08T09:21:16.729Z,73.79
2023-02-08T09:24:29.092Z,74.08
2023-02-08T09:27:41.822Z,73.68
2023-02-08T09:30:54.252Z,73.48
2023-02-08T09:34:07.132Z,73.75
2023-02-08T09:37:19.529Z,73.83
2023-02-08T09:40:58.481Z,73.51
2023-02-08T09:44:13.470Z,74.30
2023-02-08T09:47:36.309Z,72.78
2023-02-08T09:50:53.102Z,73.00
2023-02-08T09:54:16.772Z,73.29
2023-02-08T09:57:31.442Z,72.32
2023-02-08T10:00:45.990Z,72.17
2023-02-08T10:04:26.423Z,71.66
2023-02-08T10:07:55.929Z,70.54
2023-02-08T10:11:31.435Z,70.36
2023-02-08T10:14:50.879Z,70.45
2023-02-08T10:18:19.037Z,70.20
2023-02-08T10:21:48.498Z,70.15
2023-02-08T10:25:24.906Z,69.33
2023-02-08T10:29:02.154Z,68.18
2023-02-08T10:32:22.284Z,67.06
2023-02-08T10:35:39.378Z,66.41
2023-02-08T10:38:52.368Z,65.72
2023-02-08T10:42:06.820Z,65.01
2023-02-08T10:45:26.862Z,65.49
2023-02-08T10:48:59.020Z,66.30
2023-02-08T10:52:11.739Z,65.50
2023-02-08T10:55:24.223Z,65.21
2023-02-08T10:58:36.915Z,63.60
2023-02-08T11:01:49.536Z,62.59
2023-02-08T11:05:07.750Z,62.55
2023-02-08T11:08:24.650Z,63.51
2023-02-08T11:11:38.915Z,62.45
2023-02-08T11:14:51.872Z,61.80
2023-02-08T11:18:05.120Z,61.45
2023-02-08T11:21:34.741Z,61.02
2023-02-08T11:24:58.609Z,58.74
2023-02-08T11:28:43.371Z,58.93
2023-02-08T11:31:56.645Z,60.41
2023-02-08T11:35:29.601Z,60.43
2023-02-08T11:38:42.738Z,58.11
2023-02-08T11:41:57.007Z,58.07
2023-02-08T11:45:21.198Z,59.53
2023-02-08T11:48:45.146Z,58.89
2023-02-08T11:51:57.783Z,60.03
2023-02-08T11:55:19.238Z,58.29
2023-02-08T11:58:34.523Z,57.85
2023-02-08T12:01:46.910Z,58.47
2023-02-08T12:04:59.807Z,58.14
2023-02-08T12:08:29.315Z,56.12
2023-02-08T12:11:46.082Z,56.10
2023-02-08T12:15:16.686Z,57.31
2023-02-08T12:18:55.627Z,57.69
2023-02-08T12:22:19.207Z,57.79
2023-02-08T12:25:31.773Z,57.47
2023-02-08T12:29:02.162Z,56.39
2023-02-08T12:32:40.817Z,54.13
2023-02-08T12:36:21.731Z,54.29
2023-02-08T12:40:18.470Z,56.04
2023-02-08T12:43:49.586Z,54.34
2023-02-08T12:47:08.182Z,54.82
2023-02-08T12:50:38.859Z,55.14
2023-02-08T12:53:57.223Z,55.08
2023-02-08T12:57:12.145Z,55.00
2023-02-08T13:00:33.004Z,55.32
2023-02-08T13:03:58.264Z,55.14
2023-02-08T13:07:23.851Z,53.96
2023-02-08T13:10:38.330Z,53.47
2023-02-08T13:14:02.287Z,52.63
2023-02-08T13:17:26.041Z,51.75
2023-02-08T13:20:47.564Z,53.26
2023-02-08T13:23:59.996Z,52.07
2023-02-08T13:27:20.716Z,50.73
2023-02-08T13:30:34.056Z,50.59
2023-02-08T13:34:01.178Z,50.37
2023-02-08T13:37:33.361Z,50.70
2023-02-08T13:40:46.290Z,50.16
2023-02-08T13:44:09.088Z,49.62
2023-02-08T13:47:24.588Z,48.72
2023-02-08T13:50:50.785Z,47.78
2023-02-08T13:54:12.840Z,49.24
2023-02-08T13:57:54.627Z,49.30
2023-02-08T14:01:15.919Z,48.45
2023-02-08T14:04:34.109Z,47.47
2023-02-08T14:07:46.722Z,45.93
2023-02-08T14:11:15.385Z,47.24
2023-02-08T14:14:45.872Z,47.75
2023-02-08T14:17:59.979Z,49.61
2023-02-08T14:21:37.351Z,50.23
2023-02-08T14:25:02.658Z,48.93
2023-02-08T14:28:25.762Z,48.00
2023-02-08T14:31:43.314Z,48.04
2023-02-08T14:34:59.687Z,47.93
2023-02-08T14:38:24.161Z,48.69
2023-02-08T14:41:49.635Z,48.59
2023-02-08T14:45:02.860Z,48.40
2023-02-08T14:48:18.026Z,48.50
2023-02-08T14:51:32.505Z,48.58
2023-02-08T14:54:47.851Z,48.29
2023-02-08T14:58:01.082Z,48.04
2023-02-08T15:01:37.013Z,48.43
2023-02-08T15:04:49.821Z,47.12
2023-02-08T15:08:02.175Z,47.19
2023-02-08T15:11:41.206Z,47.96
2023-02-08T15:14:55.103Z,48.06
2023-02-08T15:18:14.114Z,49.20
2023-02-08T15:21:29.969Z,48.50
2023-02-08T15:24:53.437Z,47.30
2023-02-08T15:28:19.136Z,43.71
2023-02-08T15:31:33.117Z,44.16
2023-02-08T15:34:46.784Z,46.08
2023-02-08T15:37:59.435Z,47.69
2023-02-08T15:41:16.017Z,48.96
2023-02-08T15:44:30.512Z,50.84
2023-02-08T15:47:42.868Z,51.90
2023-02-08T15:50:55.998Z,53.02
2023-02-08T15:54:11.522Z,53.93
2023-02-08T15:57:38.065Z,55.77
2023-02-08T16:00:50.407Z,57.26
2023-02-08T16:04:06.150Z,58.70
2023-02-08T16:07:33.926Z,60.39
2023-02-08T16:10:47.408Z,58.66
2023-02-08T16:14:00.476Z,58.94
2023-02-08T16:17:44.889Z,59.24
2023-02-08T16:20:58.443Z,59.70
2023-02-08T16:24:11.051Z,59.93
2023-02-08T16:27:30.263Z,60.78
2023-02-08T16:30:43.499Z,61.23
2023-02-08T16:34:00.122Z,60.86
2023-02-08T16:37:32.182Z,61.42
2023-02-08T16:40:51.754Z,61.42
2023-02-08T16:44:16.249Z,61.05
2023-02-08T16:47:51.113Z,60.57
2023-02-08T16:51:04.961Z,60.97
2023-02-08T16:54:21.509Z,61.12
2023-02-08T16:57:49.792Z,61.22
2023-02-08T17:01:02.197Z,62.02
2023-02-08T17:04:14.858Z,62.58
2023-02-08T17:07:29.777Z,62.38
2023-02-08T17:10:42.883Z,62.76
2023-02-08T17:13:55.885Z,62.29
2023-02-08T17:17:09.795Z,62.23
2023-02-08T17:20:33.139Z,63.06
2023-02-08T17:23:45.998Z,63.32
2023-02-08T17:26:58.380Z,63.38
2023-02-08T17:30:17.926Z,63.63
2023-02-08T17:33:32.789Z,64.04
2023-02-08T17:36:45.400Z,64.24
2023-02-08T17:39:57.867Z,64.11
2023-02-08T17:43:10.932Z,64.55
2023-02-08T17:46:25.475Z,65.35
2023-02-08T17:49:38.987Z,64.56
2023-02-08T17:52:51.384Z,64.80
2023-02-08T17:56:04.964Z,65.51
2023-02-08T17:59:17.273Z,65.67
2023-02-08T18:02:29.984Z,65.63
2023-02-08T18:05:42.675Z,66.46
2023-02-08T18:08:55.420Z,66.42
2023-02-08T18:12:08.264Z,66.83
2023-02-08T18:15:21.358Z,67.34
2023-02-08T18:18:33.985Z,67.38
2023-02-08T18:21:46.294Z,67.84
2023-02-08T18:24:58.940Z,68.02
2023-02-08T18:28:14.685Z,67.84
2023-02-08T18:31:27.567Z,68.19
2023-02-08T18:34:39.988Z,68.38
2023-02-08T18:37:53.625Z,68.69
2023-02-08T18:41:09.519Z,70.31
2023-02-08T18:44:22.294Z,69.81
2023-02-08T18:47:36.003Z,70.93
2023-02-08T18:50:54.862Z,70.89
2023-02-08T18:54:07.241Z,70.95
2023-02-08T18:57:19.978Z,71.06
2023-02-08T19:00:32.385Z,72.34
2023-02-08T19:03:45.204Z,72.80
2023-02-08T19:06:57.664Z,72.83
2023-02-08T19:10:10.295Z,73.40
2023-02-08T19:13:22.690Z,73.40
2023-02-08T19:16:36.095Z,72.95
2023-02-08T19:19:48.551Z,73.17
2023-02-08T19:23:01.187Z,74.02
2023-02-08T19:26:20.620Z,73.26
2023-02-08T19:29:34.567Z,73.26
2023-02-08T19:32:46.896Z,73.52
2023-02-08T19:36:05.594Z,73.45
2023-02-08T19:39:20.284Z,74.77
2023-02-08T19:42:32.982Z,73.85
2023-02-08T19:45:45.848Z,73.77
2023-02-08T19:49:00.649Z,74.08
2023-02-08T19:52:13.272Z,75.07
2023-02-08T19:55:26.086Z,75.54
2023-02-08T19:58:38.431Z,75.99
2023-02-08T20:01:52.743Z,76.39
2023-02-08T20:05:05.712Z,76.79
2023-02-08T20:08:18.215Z,77.23
2023-02-08T20:11:32.933Z,77.68
2023-02-08T20:14:45.316Z,77.88
2023-02-08T20:17:58.009Z,78.57
2023-02-08T20:21:10.556Z,79.25
2023-02-08T20:24:23.211Z,78.31
2023-02-08T20:27:35.582Z,78.77
2023-02-08T20:30:48.209Z,79.13
2023-02-08T20:34:03.425Z,79.91
2023-02-08T20:37:20.718Z,79.77
2023-02-08T20:40:33.049Z,80.93
2023-02-08T20:43:45.845Z,81.63
2023-02-08T20:46:58.257Z,80.91
2023-02-08T20:50:18.618Z,81.05
2023-02-08T20:53:31.764Z,81.53
2023-02-08T20:56:44.566Z,82.56
2023-02-08T20:59:56.992Z,82.42
2023-02-08T21:03:09.679Z,81.75
2023-02-08T21:06:29.467Z,80.96
2023-02-08T21:09:42.233Z,81.42
2023-02-08T21:12:54.601Z,81.85
2023-02-08T21:16:07.715Z,82.04
2023-02-08T21:19:20.821Z,82.06
2023-02-08T21:22:33.528Z,81.95
2023-02-08T21:25:45.976Z,82.36
2023-02-08T21:28:58.909Z,81.68
2023-02-08T21:32:11.318Z,84.41
2023-02-08T21:35:23.965Z,83.98
2023-02-08T21:38:36.729Z,82.56
2023-02-08T21:41:49.356Z,82.55
2023-02-08T21:45:01.701Z,82.46
2023-02-08T21:48:14.326Z,82.10
2023-02-08T21:51:45.247Z,81.53
2023-02-08T21:54:57.894Z,82.17
2023-02-08T21:58:10.202Z,83.21
2023-02-08T22:01:22.865Z,82.06
2023-02-08T22:04:36.540Z,83.93
2023-02-08T22:07:54.381Z,85.47
2023-02-08T22:11:08.888Z,86.23
2023-02-08T22:14:21.325Z,83.97
2023-02-08T22:17:33.926Z,83.66
2023-02-08T22:20:46.516Z,82.92
2023-02-08T22:23:59.263Z,83.28
2023-02-08T22:27:11.867Z,83.08
2023-02-08T22:30:35.801Z,83.56
2023-02-08T22:33:48.195Z,83.67
2023-02-08T22:37:03.776Z,84.00
2023-02-08T22:40:16.172Z,83.57
2023-02-08T22:43:29.298Z,85.51
2023-02-08T22:46:41.661Z,84.35
2023-02-08T22:53:08.091Z,85.13
2023-02-08T22:56:20.721Z,85.40
2023-02-08T22:59:33.578Z,84.42
2023-02-08T23:02:46.283Z,85.26
2023-02-08T23:05:58.682Z,86.86
2023-02-08T23:09:11.428Z,87.10
2023-02-08T23:12:23.867Z,87.18
2023-02-08T23:15:41.237Z,87.03
2023-02-08T23:18:53.601Z,87.37
2023-02-08T23:22:06.268Z,86.79
2023-02-08T23:25:18.607Z,86.25
2023-02-08T23:28:31.357Z,85.67
2023-02-08T23:31:43.868Z,84.79
2023-02-08T23:34:56.554Z,84.60
2023-02-08T23:38:08.997Z,85.08
2023-02-08T23:41:22.287Z,85.31
2023-02-08T23:44:34.650Z,85.71
2023-02-08T23:47:47.314Z,85.37
2023-02-08T23:51:00.436Z,88.15
2023-02-08T23:54:13.104Z,87.62
2023-02-08T23:57:25.511Z,88.93
